Welcome to Northern Hawkes Bay. New Zealand.
PWS Header
      nz Flag



Hit Counter


W3C Valid W3C Valid logo


    Wairoa

Select any of the Stations below to visit their websites.










Historic Data from Weather Underground
Select the location of interest below. Wairoa is the default. Please have patience, this Data is slow to load in.
Northern Hawkes Bay Historical Data
Daily Summary for March 12, 2017 Units:  Metric    English   Both
« Previous Day
Next Day »
Daily Weekly Monthly Yearly Custom
  High: Low: Average:
Temperature: 28.6 °C 17.3 °C 20.9 °C
Dew Point: 21.9 °C 16.5 °C 18.3 °C
Humidity: 99% 51% 87%
Wind Speed: 21.9km/h 0.0km/h 5km/h
Wind Gust: 36.7km/h - -
Wind- - South
Pressure: 1005.0 hPa 995.8 hPa -
Precipitation: 13.5 mm    
Historical Graphs
 
 
Tabular Data for March 12, 2017
Time Temperature Dew Point Pressure Wind Wind Speed Wind Gust Humidity Rainfall Rate (Hourly) solar
00:01 20.1 °C 18.4 °C 1002.9 hPa Calm   3.5 km/h 90% 0.0 mm 0 W/m2
00:06 20.0 °C 18.3 °C 1002.9 hPa Calm     90% 0.0 mm 0 W/m2
00:11 19.9 °C 18.4 °C 1002.9 hPa Calm     91% 0.0 mm 0 W/m2
00:16 19.8 °C 18.5 °C 1002.9 hPa Calm     92% 0.0 mm 0 W/m2
00:21 19.7 °C 18.4 °C 1002.9 hPa Calm   3.5 km/h 92% 0.0 mm 0 W/m2
00:26 19.6 °C 18.3 °C 1002.6 hPa Calm   3.5 km/h 92% 0.0 mm 0 W/m2
00:31 19.5 °C 18.2 °C 1002.6 hPa Calm     92% 0.0 mm 0 W/m2
00:36 19.4 °C 18.1 °C 1002.3 hPa Calm     92% 0.0 mm 0 W/m2
00:41 19.3 °C 18.2 °C 1002.3 hPa Calm     93% 0.0 mm 0 W/m2
00:46 19.2 °C 18.1 °C 1002.3 hPa Calm     93% 0.0 mm 0 W/m2
00:51 19.1 °C 18.1 °C 1002.3 hPa Calm     94% 0.0 mm 0 W/m2
00:56 19.1 °C 18.1 °C 1002.6 hPa Calm     94% 0.0 mm 0 W/m2
01:01 18.9 °C 18.1 °C 1002.3 hPa Calm     95% 0.0 mm 0 W/m2
01:06 18.7 °C 17.9 °C 1002.3 hPa Calm     95% 0.0 mm 0 W/m2
01:11 18.6 °C 17.8 °C 1001.9 hPa Calm     95% 0.0 mm 0 W/m2
01:16 18.6 °C 17.8 °C 1002.3 hPa Calm     95% 0.0 mm 0 W/m2
01:21 18.6 °C 17.9 °C 1002.3 hPa NNW 1.1 km/h 3.5 km/h 96% 0.0 mm 0 W/m2
01:26 18.5 °C 17.9 °C 1001.9 hPa Calm   3.5 km/h 96% 0.0 mm 0 W/m2
01:31 18.5 °C 17.9 °C 1001.9 hPa Calm   3.5 km/h 96% 0.0 mm 0 W/m2
01:36 18.4 °C 17.9 °C 1001.9 hPa Calm   2.6 km/h 97% 0.0 mm 0 W/m2
01:41 18.5 °C 18.1 °C 1001.9 hPa Calm     97% 0.0 mm 0 W/m2
01:46 18.5 °C 18.1 °C 1001.9 hPa Calm     97% 0.0 mm 0 W/m2
01:51 18.4 °C 18.1 °C 1001.9 hPa Calm     98% 0.0 mm 0 W/m2
01:56 18.4 °C 18.1 °C 1001.9 hPa Calm     98% 0.0 mm 0 W/m2
02:01 18.5 °C 18.2 °C 1001.9 hPa Calm     98% 0.0 mm 0 W/m2
02:06 18.5 °C 18.2 °C 1001.9 hPa Calm     98% 0.0 mm 0 W/m2
02:11 18.5 °C 18.2 °C 1001.9 hPa Calm     98% 0.0 mm 0 W/m2
02:16 18.4 °C 18.1 °C 1001.6 hPa Calm     98% 0.0 mm 0 W/m2
02:21 18.3 °C 18.0 °C 1001.9 hPa Calm     98% 0.0 mm 0 W/m2
02:26 18.3 °C 18.0 °C 1001.6 hPa Calm     98% 0.0 mm 0 W/m2
02:31 18.3 °C 18.2 °C 1001.9 hPa Calm   6.1 km/h 99% 0.0 mm 0 W/m2
02:36 18.3 °C 18.2 °C 1001.9 hPa Calm   6.1 km/h 99% 0.0 mm 0 W/m2
02:41 18.3 °C 18.2 °C 1001.9 hPa Calm   2.6 km/h 99% 0.0 mm 0 W/m2
02:46 18.3 °C 18.2 °C 1001.6 hPa Calm     99% 0.0 mm 0 W/m2
02:51 18.3 °C 18.2 °C 1001.9 hPa Calm   2.6 km/h 99% 0.0 mm 0 W/m2
02:56 18.2 °C 18.1 °C 1001.9 hPa Calm   2.6 km/h 99% 0.0 mm 0 W/m2
03:01 18.2 °C 18.1 °C 1001.6 hPa Calm     99% 0.0 mm 0 W/m2
03:06 18.2 °C 18.1 °C 1001.6 hPa Calm   1.1 km/h 99% 0.0 mm 0 W/m2
03:11 18.3 °C 18.2 °C 1001.6 hPa Calm   1.1 km/h 99% 0.0 mm 0 W/m2
03:16 18.3 °C 18.2 °C 1001.9 hPa Calm   5.0 km/h 99% 0.0 mm 0 W/m2
03:21 18.3 °C 18.2 °C 1001.6 hPa Calm   5.0 km/h 99% 0.0 mm 0 W/m2
03:26 18.2 °C 18.1 °C 1001.6 hPa Calm     99% 0.0 mm 0 W/m2
03:31 18.3 °C 18.2 °C 1001.6 hPa Calm     99% 0.0 mm 0 W/m2
03:36 18.3 °C 18.2 °C 1001.6 hPa Calm     99% 0.0 mm 0 W/m2
03:41 18.3 °C 18.2 °C 1001.6 hPa Calm     99% 0.0 mm 0 W/m2
03:46 18.3 °C 18.2 °C 1001.6 hPa Calm     99% 0.0 mm 0 W/m2
03:51 18.3 °C 18.2 °C 1001.9 hPa Calm     99% 0.0 mm 0 W/m2
03:56 18.3 °C 18.2 °C 1001.6 hPa Calm     99% 0.0 mm 0 W/m2
04:01 18.2 °C 18.1 °C 1001.6 hPa Calm     99% 0.0 mm 0 W/m2
04:06 18.1 °C 17.9 °C 1001.6 hPa Calm     99% 0.0 mm 0 W/m2
04:11 18.0 °C 17.8 °C 1001.6 hPa Calm     99% 0.0 mm 0 W/m2
04:16 18.0 °C 17.8 °C 1001.6 hPa Calm     99% 0.0 mm 0 W/m2
04:21 18.0 °C 17.8 °C 1001.6 hPa Calm     99% 0.0 mm 0 W/m2
04:26 18.0 °C 17.8 °C 1001.6 hPa Calm     99% 0.0 mm 0 W/m2
04:31 18.0 °C 17.8 °C 1001.6 hPa Calm     99% 0.0 mm 0 W/m2
04:36 17.9 °C 17.4 °C 1001.6 hPa Calm     97% 0.0 mm 0 W/m2
04:41 18.0 °C 17.8 °C 1001.6 hPa Calm   6.1 km/h 99% 0.0 mm 0 W/m2
04:46 18.0 °C 17.8 °C 1001.6 hPa Calm   6.1 km/h 99% 0.0 mm 0 W/m2
04:51 18.0 °C 17.8 °C 1001.2 hPa Calm     99% 0.0 mm 0 W/m2
04:56 17.9 °C 17.4 °C 1001.2 hPa Calm     97% 0.0 mm 0 W/m2
05:01 17.9 °C 17.4 °C 1001.2 hPa Calm     97% 0.0 mm 0 W/m2
05:06 17.9 °C 17.4 °C 1001.6 hPa Calm     97% 0.0 mm 0 W/m2
05:11 17.7 °C 17.2 °C 1001.2 hPa Calm     97% 0.0 mm 0 W/m2
05:16 17.7 °C 17.2 °C 1001.2 hPa Calm     97% 0.0 mm 0 W/m2
05:21 17.8 °C 17.3 °C 1001.2 hPa Calm     97% 0.0 mm 0 W/m2
05:26 17.9 °C 17.4 °C 1001.2 hPa Calm     97% 0.0 mm 0 W/m2
05:31 18.0 °C 17.8 °C 1001.2 hPa Calm     99% 0.0 mm 0 W/m2
05:36 17.9 °C 17.4 °C 1001.6 hPa Calm     97% 0.0 mm 0 W/m2
05:41 17.7 °C 17.2 °C 1000.9 hPa Calm     97% 0.0 mm 0 W/m2
05:46 17.5 °C 17.1 °C 1001.2 hPa Calm     97% 0.0 mm 0 W/m2
05:51 17.5 °C 17.1 °C 1001.2 hPa Calm     97% 0.0 mm 0 W/m2
05:56 17.5 °C 17.1 °C 1001.6 hPa Calm     97% 0.0 mm 0 W/m2
06:01 17.6 °C 17.1 °C 1001.2 hPa Calm     97% 0.0 mm 0 W/m2
06:06 17.7 °C 17.2 °C 1001.2 hPa Calm     97% 0.0 mm 0 W/m2
06:11 17.6 °C 17.1 °C 1001.6 hPa Calm     97% 0.0 mm 0 W/m2
06:16 17.6 °C 17.1 °C 1001.6 hPa Calm     97% 0.0 mm 0 W/m2
06:21 17.7 °C 17.2 °C 1001.6 hPa Calm     97% 0.0 mm 0 W/m2
06:26 17.7 °C 17.2 °C 1001.2 hPa Calm     97% 0.0 mm 0 W/m2
06:31 17.8 °C 17.3 °C 1001.2 hPa Calm     97% 0.0 mm 0 W/m2
06:36 17.9 °C 17.4 °C 1001.2 hPa Calm     97% 0.0 mm 0 W/m2
06:41 17.9 °C 17.4 °C 1001.2 hPa Calm     97% 0.0 mm 0 W/m2
06:46 17.9 °C 17.4 °C 1001.2 hPa Calm     97% 0.0 mm 0 W/m2
06:51 17.9 °C 17.4 °C 1001.6 hPa Calm     97% 0.0 mm 0 W/m2
06:57 17.9 °C 17.4 °C 1001.6 hPa Calm     97% 0.0 mm 0 W/m2
07:03 17.9 °C 17.4 °C 1001.6 hPa Calm     97% 0.0 mm 0 W/m2
07:08 17.9 °C 17.4 °C 1001.6 hPa Calm     97% 0.0 mm 2 W/m2
07:13 17.9 °C 17.4 °C 1001.2 hPa Calm     97% 0.0 mm 4 W/m2
07:18 18.0 °C 17.8 °C 1001.2 hPa Calm     99% 0.0 mm 6 W/m2
07:23 18.0 °C 17.8 °C 1001.2 hPa Calm     99% 0.0 mm 11 W/m2
07:28 18.1 °C 17.9 °C 1001.2 hPa Calm     99% 0.0 mm 12 W/m2
07:33 18.1 °C 17.9 °C 1001.2 hPa Calm     99% 0.0 mm 23 W/m2
07:38 18.2 °C 18.1 °C 1001.2 hPa Calm     99% 0.0 mm 32 W/m2
07:43 18.2 °C 18.1 °C 1001.6 hPa Calm     99% 0.0 mm 43 W/m2
07:48 18.3 °C 18.2 °C 1001.6 hPa Calm     99% 0.0 mm 50 W/m2
07:53 18.6 °C 18.4 °C 1001.6 hPa Calm     99% 0.0 mm 79 W/m2
07:58 18.7 °C 18.6 °C 1001.6 hPa Calm     99% 0.0 mm 55 W/m2
08:04 18.8 °C 18.7 °C 1001.6 hPa Calm     99% 0.0 mm 67 W/m2
08:09 19.0 °C 18.8 °C 1001.6 hPa Calm     99% 0.0 mm 124 W/m2
08:14 19.0 °C 18.8 °C 1001.6 hPa Calm     99% 0.0 mm 127 W/m2
08:19 19.1 °C 18.9 °C 1001.6 hPa Calm     99% 0.0 mm 87 W/m2
08:24 19.1 °C 18.9 °C 1001.6 hPa Calm   6.1 km/h 99% 0.0 mm 132 W/m2
08:29 19.4 °C 19.3 °C 1001.2 hPa Calm   6.1 km/h 99% 0.0 mm 179 W/m2
08:34 20.3 °C 20.2 °C 1001.2 hPa Calm     99% 0.0 mm 241 W/m2
08:39 21.5 °C 21.2 °C 1001.2 hPa Calm     98% 0.3 mm 264 W/m2
08:49 22.6 °C 21.9 °C 1001.2 hPa Calm   5.0 km/h 96% 0.3 mm 285 W/m2
08:54 23.0 °C 21.7 °C 1000.9 hPa Calm   5.0 km/h 92% 0.3 mm 294 W/m2
08:59 23.2 °C 20.6 °C 1001.2 hPa North 3.5 km/h 6.1 km/h 85% 0.3 mm 300 W/m2
09:04 22.9 °C 19.5 °C 1000.9 hPa North 5.0 km/h 9.7 km/h 81% 0.3 mm 299 W/m2
09:09 22.9 °C 19.7 °C 1000.9 hPa North 5.0 km/h 9.7 km/h 82% 0.3 mm 296 W/m2
09:14 22.8 °C 19.6 °C 1000.9 hPa North 1.1 km/h 7.2 km/h 82% 0.3 mm 302 W/m2
09:19 23.3 °C 20.1 °C 1000.9 hPa North 5.0 km/h 7.2 km/h 82% 0.3 mm 316 W/m2
09:24 23.4 °C 19.8 °C 1000.9 hPa North 3.5 km/h 9.7 km/h 80% 0.3 mm 332 W/m2
09:29 23.8 °C 20.2 °C 1000.9 hPa NNW 3.5 km/h 11.1 km/h 80% 0.3 mm 350 W/m2
09:34 24.4 °C 20.1 °C 1000.9 hPa NNW 5.0 km/h 11.1 km/h 77% 0.3 mm 364 W/m2
09:39 25.0 °C 20.1 °C 1000.6 hPa NNW 1.1 km/h 8.7 km/h 74% 0.0 mm 400 W/m2
09:44 25.7 °C 20.3 °C 1000.6 hPa North 12.2 km/h 17.2 km/h 72% 0.0 mm 423 W/m2
09:49 26.0 °C 18.7 °C 1000.6 hPa North 7.2 km/h 20.9 km/h 64% 0.0 mm 415 W/m2
10:05 27.4 °C 18.4 °C 1000.6 hPa NNE 12.2 km/h 14.8 km/h 58% 0.0 mm 443 W/m2
10:11 26.8 °C 18.2 °C 1000.2 hPa NNE 11.1 km/h 15.8 km/h 59% 0.0 mm 452 W/m2
10:16 26.8 °C 18.2 °C 1000.6 hPa North 15.8 km/h 20.9 km/h 59% 0.0 mm 476 W/m2
10:21 26.8 °C 18.4 °C 1000.6 hPa North 7.2 km/h 20.9 km/h 60% 0.0 mm 458 W/m2
10:26 27.2 °C 18.8 °C 1000.2 hPa NNE 5.0 km/h 20.9 km/h 60% 0.0 mm 462 W/m2
10:31 27.3 °C 18.1 °C 1000.6 hPa NE 9.7 km/h 23.3 km/h 57% 0.0 mm 523 W/m2
10:36 27.2 °C 17.9 °C 1000.6 hPa NE 9.7 km/h 23.3 km/h 57% 0.0 mm 494 W/m2
10:41 27.2 °C 18.2 °C 1000.6 hPa NNE 11.1 km/h 20.9 km/h 58% 0.0 mm 463 W/m2
10:46 27.3 °C 18.1 °C 1000.6 hPa NE 7.2 km/h 20.9 km/h 57% 0.0 mm 399 W/m2
10:51 27.2 °C 18.8 °C 1000.2 hPa NNE 14.8 km/h 19.5 km/h 60% 0.0 mm 440 W/m2
11:08 26.9 °C 18.2 °C 1000.2 hPa NNE 6.1 km/h 19.5 km/h 59% 0.0 mm 189 W/m2
11:13 27.0 °C 17.8 °C 999.9 hPa NNE 12.2 km/h 18.3 km/h 57% 0.0 mm 158 W/m2
11:18 27.1 °C 18.2 °C 999.9 hPa NNE 6.1 km/h 19.5 km/h 58% 0.0 mm 354 W/m2
11:23 27.4 °C 17.9 °C 999.9 hPa NNE 7.2 km/h 19.5 km/h 56% 0.0 mm 455 W/m2
11:28 27.5 °C 18.2 °C 999.5 hPa NNE 7.2 km/h 14.8 km/h 57% 0.0 mm 581 W/m2
11:33 27.7 °C 17.3 °C 999.5 hPa NNW 13.4 km/h 23.3 km/h 53% 0.0 mm 597 W/m2
11:38 27.7 °C 17.6 °C 999.5 hPa North 9.7 km/h 23.3 km/h 54% 0.0 mm 362 W/m2
11:43 27.8 °C 17.1 °C 999.5 hPa North 5.0 km/h 19.5 km/h 52% 0.0 mm 442 W/m2
11:48 27.9 °C 17.4 °C 999.2 hPa North 13.4 km/h 24.5 km/h 53% 0.0 mm 447 W/m2
11:53 27.9 °C 17.4 °C 999.2 hPa North 7.2 km/h 24.5 km/h 53% 0.0 mm 537 W/m2
11:58 28.0 °C 17.3 °C 999.2 hPa NNE 9.7 km/h 24.5 km/h 52% 0.0 mm 653 W/m2
12:03 28.3 °C 17.6 °C 999.2 hPa NNE 15.8 km/h 24.5 km/h 52% 0.0 mm 515 W/m2
12:08 27.9 °C 17.2 °C 998.9 hPa NNE 11.1 km/h 24.5 km/h 52% 0.0 mm 626 W/m2
12:13 28.1 °C 17.7 °C 999.2 hPa North 6.1 km/h 24.5 km/h 53% 0.0 mm 232 W/m2
12:18 28.2 °C 17.4 °C 998.9 hPa NNE 14.8 km/h 21.9 km/h 52% 0.0 mm 704 W/m2
12:23 28.0 °C 16.9 °C 998.9 hPa NNE 7.2 km/h 21.9 km/h 51% 0.0 mm 753 W/m2
12:28 28.2 °C 17.1 °C 998.9 hPa North 12.2 km/h 25.6 km/h 51% 0.0 mm 768 W/m2
12:33 27.9 °C 16.8 °C 998.9 hPa North 11.1 km/h 31.7 km/h 51% 0.0 mm 776 W/m2
12:38 27.8 °C 17.1 °C 998.2 hPa NNE 9.7 km/h 31.7 km/h 52% 0.0 mm 877 W/m2
12:43 28.2 °C 17.1 °C 998.2 hPa NNE 14.8 km/h 29.4 km/h 51% 0.0 mm 825 W/m2
12:48 28.3 °C 17.6 °C 998.5 hPa North 8.7 km/h 24.5 km/h 52% 0.0 mm 870 W/m2
12:53 28.6 °C 17.5 °C 998.2 hPa NNW 15.8 km/h 28.0 km/h 51% 0.0 mm 859 W/m2
12:58 28.1 °C 17.3 °C 998.2 hPa North 9.7 km/h 28.0 km/h 52% 0.0 mm 844 W/m2
13:03 28.3 °C 17.2 °C 998.2 hPa NNE 18.3 km/h 36.7 km/h 51% 0.0 mm 544 W/m2
13:08 27.8 °C 17.4 °C 998.2 hPa NNE 11.1 km/h 36.7 km/h 53% 0.0 mm 889 W/m2
13:13 28.2 °C 17.4 °C 997.9 hPa NNE 17.2 km/h 36.7 km/h 52% 0.0 mm 688 W/m2
13:18 27.9 °C 17.4 °C 998.2 hPa NNE 21.9 km/h 29.4 km/h 53% 0.0 mm 542 W/m2
13:23 27.7 °C 17.6 °C 998.5 hPa NNE 13.4 km/h 29.4 km/h 54% 0.0 mm 794 W/m2
13:28 27.8 °C 17.4 °C 998.5 hPa North 13.4 km/h 25.6 km/h 53% 0.0 mm 619 W/m2
13:33 27.4 °C 17.3 °C 998.2 hPa North 11.1 km/h 24.5 km/h 54% 0.0 mm 530 W/m2
13:38 27.4 °C 17.3 °C 998.5 hPa NNE 14.8 km/h 25.6 km/h 54% 0.0 mm 795 W/m2
13:43 27.6 °C 17.5 °C 998.5 hPa NNE 15.8 km/h 25.6 km/h 54% 0.0 mm 318 W/m2
13:48 26.9 °C 17.4 °C 998.5 hPa NNE 14.8 km/h 28.0 km/h 56% 0.0 mm 186 W/m2
13:53 26.0 °C 17.9 °C 998.5 hPa NNE 9.7 km/h 28.0 km/h 61% 0.0 mm 116 W/m2
13:58 25.0 °C 18.2 °C 998.5 hPa North 7.2 km/h 21.9 km/h 66% 0.3 mm 74 W/m2
14:03 24.1 °C 18.8 °C 998.9 hPa North 17.2 km/h 34.3 km/h 72% 0.3 mm 50 W/m2
14:08 23.2 °C 18.8 °C 998.9 hPa North 11.1 km/h 34.3 km/h 76% 0.5 mm 43 W/m2
14:13 22.6 °C 19.0 °C 998.5 hPa North 8.7 km/h 24.5 km/h 80% 1.0 mm 47 W/m2
14:18 22.3 °C 18.9 °C 998.5 hPa North 8.7 km/h 18.3 km/h 81% 1.0 mm 54 W/m2
14:23 22.2 °C 19.0 °C 998.2 hPa NNE 7.2 km/h 15.8 km/h 82% 1.0 mm 63 W/m2
14:28 22.1 °C 19.1 °C 998.2 hPa NNE 1.1 km/h 15.8 km/h 83% 1.3 mm 91 W/m2
14:33 22.2 °C 19.2 °C 998.2 hPa NNE 1.1 km/h 9.7 km/h 83% 1.3 mm 138 W/m2
14:38 22.4 °C 19.6 °C 997.9 hPa NNE 1.1 km/h 6.1 km/h 84% 1.3 mm 199 W/m2
14:43 22.7 °C 19.9 °C 997.9 hPa North 2.6 km/h 6.1 km/h 84% 1.3 mm 227 W/m2
14:48 23.2 °C 20.6 °C 997.5 hPa North 1.1 km/h 6.1 km/h 85% 1.3 mm 222 W/m2
14:53 23.6 °C 20.6 °C 997.5 hPa NNE 2.6 km/h 6.1 km/h 83% 1.3 mm 238 W/m2
14:58 24.1 °C 20.3 °C 997.2 hPa NE 2.6 km/h 5.0 km/h 79% 1.0 mm 238 W/m2
15:03 24.7 °C 20.2 °C 997.2 hPa NNE 3.5 km/h 8.7 km/h 76% 1.0 mm 251 W/m2
15:08 25.1 °C 20.2 °C 997.2 hPa North 2.6 km/h 8.7 km/h 74% 0.3 mm 275 W/m2
15:13 25.5 °C 20.1 °C 997.2 hPa NNW 1.1 km/h 6.1 km/h 72% 0.3 mm 340 W/m2
15:18 25.7 °C 19.6 °C 996.8 hPa NNW 2.6 km/h 8.7 km/h 69% 0.3 mm 380 W/m2
15:23 25.8 °C 19.2 °C 996.8 hPa NNW 3.5 km/h 8.7 km/h 67% 0.3 mm 273 W/m2
15:28 25.9 °C 19.8 °C 996.5 hPa Calm   7.2 km/h 69% 0.0 mm 294 W/m2
15:33 26.1 °C 19.3 °C 996.5 hPa Calm   7.2 km/h 66% 0.0 mm 294 W/m2
15:38 26.9 °C 20.1 °C 996.5 hPa Calm   7.2 km/h 66% 0.0 mm 296 W/m2
15:43 27.3 °C 19.9 °C 996.5 hPa Calm   1.1 km/h 64% 0.0 mm 281 W/m2
15:48 27.1 °C 20.0 °C 996.2 hPa SSW 5.0 km/h 8.7 km/h 65% 0.0 mm 279 W/m2
15:53 26.3 °C 19.9 °C 996.5 hPa South 5.0 km/h 9.7 km/h 68% 0.0 mm 246 W/m2
15:58 25.9 °C 20.1 °C 996.2 hPa South 5.0 km/h 9.7 km/h 70% 0.0 mm 203 W/m2
16:03 25.6 °C 20.0 °C 996.2 hPa SSW 3.5 km/h 8.7 km/h 71% 0.0 mm 171 W/m2
16:08 25.4 °C 20.0 °C 996.2 hPa SSW 1.1 km/h 7.2 km/h 72% 0.0 mm 150 W/m2
16:13 25.2 °C 20.3 °C 996.2 hPa SSW 9.7 km/h 14.8 km/h 74% 0.0 mm 124 W/m2
16:18 24.3 °C 19.4 °C 995.8 hPa SSW 5.0 km/h 14.8 km/h 74% 0.0 mm 130 W/m2
16:23 23.7 °C 19.4 °C 995.8 hPa SSW 2.6 km/h 14.8 km/h 77% 0.0 mm 105 W/m2
16:28 23.2 °C 19.2 °C 995.8 hPa South 11.1 km/h 15.8 km/h 78% 0.0 mm 82 W/m2
16:33 22.7 °C 19.3 °C 995.8 hPa SSW 8.7 km/h 15.8 km/h 81% 0.0 mm 75 W/m2
16:38 22.2 °C 19.2 °C 995.8 hPa SSW 8.7 km/h 15.8 km/h 83% 0.0 mm 57 W/m2
16:43 21.9 °C 19.4 °C 995.8 hPa SSW 8.7 km/h 13.4 km/h 86% 0.0 mm 56 W/m2
16:48 21.9 °C 19.4 °C 995.8 hPa SSW 6.1 km/h 14.8 km/h 86% 0.0 mm 73 W/m2
16:53 22.0 °C 19.4 °C 995.8 hPa SSW 5.0 km/h 14.8 km/h 85% 0.0 mm 66 W/m2
16:58 21.9 °C 19.7 °C 996.2 hPa SW 7.2 km/h 13.4 km/h 87% 0.5 mm 49 W/m2
17:03 21.6 °C 19.7 °C 996.5 hPa SW 8.7 km/h 13.4 km/h 89% 1.0 mm 49 W/m2
17:08 21.3 °C 19.6 °C 996.2 hPa WSW 7.2 km/h 13.4 km/h 90% 1.0 mm 47 W/m2
17:13 21.2 °C 19.7 °C 996.5 hPa SW 7.2 km/h 13.4 km/h 91% 1.8 mm 43 W/m2
17:18 21.0 °C 19.7 °C 996.2 hPa SW 8.7 km/h 13.4 km/h 92% 2.3 mm 40 W/m2
17:23 20.7 °C 19.7 °C 996.5 hPa SW 9.7 km/h 15.8 km/h 94% 3.0 mm 42 W/m2
17:28 20.6 °C 19.8 °C 996.5 hPa SW 11.1 km/h 17.2 km/h 95% 3.3 mm 45 W/m2
17:33 20.5 °C 19.8 °C 996.5 hPa SSW 11.1 km/h 17.2 km/h 96% 3.6 mm 45 W/m2
17:38 20.4 °C 19.8 °C 996.5 hPa SW 6.1 km/h 18.3 km/h 96% 4.3 mm 43 W/m2
17:43 20.3 °C 19.8 °C 996.5 hPa SW 9.7 km/h 18.3 km/h 97% 4.8 mm 37 W/m2
17:48 20.2 °C 19.7 °C 996.5 hPa SW 9.7 km/h 17.2 km/h 97% 5.1 mm 30 W/m2
17:54 20.1 °C 19.6 °C 996.8 hPa SW 8.7 km/h 18.3 km/h 97% 5.6 mm 24 W/m2
17:59 20.1 °C 19.8 °C 996.8 hPa SW 9.7 km/h 19.5 km/h 98% 5.6 mm 18 W/m2
18:04 20.1 °C 19.8 °C 996.8 hPa SW 12.2 km/h 19.5 km/h 98% 6.1 mm 14 W/m2
18:09 20.1 °C 19.9 °C 996.8 hPa SW 9.7 km/h 18.3 km/h 99% 6.6 mm 13 W/m2
18:14 20.0 °C 19.8 °C 997.2 hPa SW 7.2 km/h 18.3 km/h 99% 6.3 mm 10 W/m2
18:19 19.8 °C 19.7 °C 997.2 hPa SW 11.1 km/h 19.5 km/h 99% 6.9 mm 7 W/m2
18:24 19.7 °C 19.6 °C 997.2 hPa SW 11.1 km/h 19.5 km/h 99% 6.9 mm 9 W/m2
18:29 19.6 °C 19.4 °C 996.8 hPa SSW 6.1 km/h 18.3 km/h 99% 6.9 mm 11 W/m2
18:34 19.4 °C 19.3 °C 997.2 hPa SSW 8.7 km/h 15.8 km/h 99% 6.3 mm 9 W/m2
18:39 19.4 °C 19.3 °C 997.5 hPa SSW 7.2 km/h 12.2 km/h 99% 6.1 mm 6 W/m2
18:44 19.4 °C 19.3 °C 997.9 hPa SW 5.0 km/h 12.2 km/h 99% 5.6 mm 3 W/m2
18:49 19.4 °C 19.3 °C 997.9 hPa SW 5.0 km/h 9.7 km/h 99% 5.6 mm 2 W/m2
18:54 19.4 °C 19.3 °C 997.9 hPa WSW 2.6 km/h 9.7 km/h 99% 5.1 mm 1 W/m2
18:59 19.6 °C 19.4 °C 998.2 hPa SW 3.5 km/h 9.7 km/h 99% 4.6 mm 0 W/m2
19:04 19.8 °C 19.7 °C 998.9 hPa SW 6.1 km/h 11.1 km/h 99% 4.3 mm 0 W/m2
19:09 19.8 °C 19.7 °C 998.9 hPa SW 12.2 km/h 18.3 km/h 99% 4.3 mm 0 W/m2
19:14 19.5 °C 19.3 °C 998.9 hPa SW 11.1 km/h 21.9 km/h 99% 3.0 mm 0 W/m2
19:19 19.3 °C 19.2 °C 998.9 hPa SW 7.2 km/h 21.9 km/h 99% 2.3 mm 0 W/m2
19:24 19.1 °C 18.9 °C 999.2 hPa SW 13.4 km/h 19.5 km/h 99% 2.0 mm 0 W/m2
19:29 19.1 °C 18.9 °C 999.5 hPa SW 11.1 km/h 19.5 km/h 99% 1.8 mm 0 W/m2
19:34 19.0 °C 18.8 °C 999.5 hPa WSW 8.7 km/h 21.9 km/h 99% 1.8 mm 0 W/m2
19:39 18.9 °C 18.8 °C 999.5 hPa WSW 9.7 km/h 21.9 km/h 99% 1.5 mm 0 W/m2
19:44 18.9 °C 18.8 °C 999.9 hPa West 8.7 km/h 21.9 km/h 99% 1.5 mm 0 W/m2
19:49 18.8 °C 18.7 °C 999.9 hPa WSW 2.6 km/h 14.8 km/h 99% 1.3 mm 0 W/m2
19:54 18.8 °C 18.7 °C 999.9 hPa WSW 13.4 km/h 15.8 km/h 99% 1.0 mm 0 W/m2
19:59 18.9 °C 18.8 °C 1000.2 hPa West 1.1 km/h 15.8 km/h 99% 1.0 mm 0 W/m2
20:04 18.9 °C 18.8 °C 1000.2 hPa West 3.5 km/h 13.4 km/h 99% 0.5 mm 0 W/m2
20:09 18.9 °C 18.8 °C 1000.2 hPa WNW 2.6 km/h 13.4 km/h 99% 0.3 mm 0 W/m2
20:14 18.9 °C 18.8 °C 1000.2 hPa Calm   15.8 km/h 99% 0.3 mm 0 W/m2
20:19 18.9 °C 18.8 °C 1000.6 hPa WSW 7.2 km/h 15.8 km/h 99% 0.0 mm 0 W/m2
20:24 18.8 °C 18.7 °C 1000.6 hPa West 11.1 km/h 17.2 km/h 99% 0.0 mm 0 W/m2
20:29 18.7 °C 18.6 °C 1000.6 hPa West 7.2 km/h 17.2 km/h 99% 0.0 mm 0 W/m2
20:34 18.7 °C 18.6 °C 1000.9 hPa WSW 5.0 km/h 14.8 km/h 99% 0.0 mm 0 W/m2
20:39 18.6 °C 18.4 °C 1000.6 hPa WSW 7.2 km/h 13.4 km/h 99% 0.0 mm 0 W/m2
20:44 18.5 °C 18.3 °C 1000.9 hPa WSW 8.7 km/h 12.2 km/h 99% 0.0 mm 0 W/m2
20:49 18.4 °C 18.3 °C 1000.9 hPa SW 18.3 km/h 24.5 km/h 99% 0.0 mm 0 W/m2
20:54 18.3 °C 18.2 °C 1000.9 hPa SW 13.4 km/h 24.5 km/h 99% 0.0 mm 0 W/m2
20:59 18.2 °C 18.1 °C 1000.9 hPa SW 6.1 km/h 24.5 km/h 99% 0.0 mm 0 W/m2
21:04 18.1 °C 17.9 °C 1001.2 hPa SW 11.1 km/h 19.5 km/h 99% 0.0 mm 0 W/m2
21:09 17.7 °C 17.2 °C 1001.6 hPa SW 12.2 km/h 20.9 km/h 97% 0.0 mm 0 W/m2
21:14 18.0 °C 17.8 °C 1001.6 hPa SW 11.1 km/h 23.3 km/h 99% 0.0 mm 0 W/m2
21:19 17.9 °C 17.4 °C 1001.9 hPa SW 9.7 km/h 23.3 km/h 97% 0.0 mm 0 W/m2
21:24 17.9 °C 17.4 °C 1001.9 hPa SSW 12.2 km/h 23.3 km/h 97% 0.3 mm 0 W/m2
21:29 17.9 °C 17.4 °C 1002.3 hPa SW 9.7 km/h 19.5 km/h 97% 0.3 mm 0 W/m2
21:34 17.9 °C 17.4 °C 1002.3 hPa SW 11.1 km/h 18.3 km/h 97% 0.3 mm 0 W/m2
21:39 17.9 °C 17.4 °C 1002.6 hPa SW 3.5 km/h 15.8 km/h 97% 0.3 mm 0 W/m2
21:44 17.9 °C 17.4 °C 1002.6 hPa SW 7.2 km/h 15.8 km/h 97% 0.3 mm 0 W/m2
21:49 17.9 °C 17.4 °C 1002.9 hPa WSW 2.6 km/h 14.8 km/h 97% 0.3 mm 0 W/m2
21:54 17.8 °C 17.3 °C 1002.9 hPa West 6.1 km/h 14.8 km/h 97% 0.3 mm 0 W/m2
21:59 17.8 °C 17.3 °C 1002.9 hPa West 8.7 km/h 11.1 km/h 97% 0.3 mm 0 W/m2
22:04 17.8 °C 17.3 °C 1002.9 hPa WSW 12.2 km/h 15.8 km/h 97% 0.3 mm 0 W/m2
22:09 17.6 °C 17.1 °C 1003.3 hPa WSW 6.1 km/h 15.8 km/h 97% 0.3 mm 0 W/m2
22:14 17.5 °C 17.1 °C 1003.3 hPa West 6.1 km/h 15.8 km/h 97% 0.3 mm 0 W/m2
22:19 17.5 °C 17.1 °C 1003.6 hPa WSW 5.0 km/h 15.8 km/h 97% 0.3 mm 0 W/m2
22:24 17.5 °C 17.1 °C 1003.6 hPa SW 9.7 km/h 13.4 km/h 97% 0.0 mm 0 W/m2
22:29 17.6 °C 17.1 °C 1003.9 hPa SW 2.6 km/h 13.4 km/h 97% 0.0 mm 0 W/m2
22:34 17.5 °C 17.1 °C 1003.6 hPa SW 20.9 km/h 25.6 km/h 97% 0.0 mm 0 W/m2
22:39 17.4 °C 16.9 °C 1003.9 hPa SW 6.1 km/h 25.6 km/h 97% 0.0 mm 0 W/m2
22:44 17.5 °C 17.1 °C 1003.9 hPa SW 9.7 km/h 20.9 km/h 97% 0.0 mm 0 W/m2
22:49 17.5 °C 17.1 °C 1003.9 hPa SSW 8.7 km/h 15.8 km/h 97% 0.0 mm 0 W/m2
22:54 17.4 °C 16.9 °C 1003.9 hPa SSW 9.7 km/h 15.8 km/h 97% 0.0 mm 0 W/m2
22:59 17.4 °C 16.9 °C 1004.3 hPa SW 9.7 km/h 18.3 km/h 97% 0.0 mm 0 W/m2
23:04 17.3 °C 16.8 °C 1004.3 hPa SSW 7.2 km/h 18.3 km/h 97% 0.0 mm 0 W/m2
23:09 17.3 °C 16.8 °C 1004.3 hPa SW 6.1 km/h 17.2 km/h 97% 0.0 mm 0 W/m2
23:15 17.3 °C 16.7 °C 1004.6 hPa SSW 8.7 km/h 18.3 km/h 96% 0.0 mm 0 W/m2
23:20 17.3 °C 16.7 °C 1004.6 hPa SSW 9.7 km/h 18.3 km/h 96% 0.0 mm 0 W/m2
23:25 17.3 °C 16.7 °C 1004.6 hPa SSW 7.2 km/h 17.2 km/h 96% 0.0 mm 0 W/m2
23:30 17.4 °C 16.6 °C 1004.6 hPa SW 8.7 km/h 14.8 km/h 95% 0.0 mm 0 W/m2
23:35 17.3 °C 16.5 °C 1005.0 hPa SSW 8.7 km/h 13.4 km/h 95% 0.0 mm 0 W/m2
23:40 17.4 °C 16.6 °C 1005.0 hPa South 7.2 km/h 13.4 km/h 95% 0.0 mm 0 W/m2
23:45 17.4 °C 16.6 °C 1005.0 hPa SSW 8.7 km/h 12.2 km/h 95% 0.0 mm 0 W/m2
23:50 17.4 °C 16.6 °C 1005.0 hPa SSW 3.5 km/h 11.1 km/h 95% 0.0 mm 0 W/m2
23:55 17.4 °C 16.6 °C 1005.0 hPa SSW 6.1 km/h 11.1 km/h 95% 0.0 mm 0 W/m2
Northern Hawkes Bay. New Zealand Historic Data
Compliments of Weather Underground - 2 mb